createdAt,value
2018-01-11T01:38:43.319Z,65.02
2018-01-11T01:38:43.886Z,65.12
2018-01-11T01:38:44.478Z,64.93
2018-01-11T01:38:45.078Z,65.12
2018-01-11T01:38:45.676Z,64.83
2018-01-11T01:38:46.288Z,64.93
2018-01-11T01:38:46.876Z,64.93
2018-01-11T01:38:47.474Z,64.93
2018-01-11T01:39:40.932Z,64.74
2018-01-11T01:39:41.529Z,64.93
2018-01-11T01:39:42.129Z,65.12
2018-01-11T01:39:42.728Z,64.83
2018-01-11T01:39:43.329Z,64.93
2018-01-11T01:39:43.928Z,65.12
2018-01-11T01:39:44.529Z,65.02
2018-01-11T01:39:45.127Z,64.83
2018-01-11T01:40:39.609Z,65.40
2018-01-11T01:40:40.204Z,64.93
2018-01-11T01:40:40.805Z,64.93
2018-01-11T01:40:41.408Z,64.93
2018-01-11T01:40:42.004Z,64.83
2018-01-11T01:40:42.604Z,64.83
2018-01-11T01:40:43.204Z,64.93
2018-01-11T01:40:43.804Z,64.93
2018-01-11T01:41:37.261Z,64.55
2018-01-11T01:41:37.859Z,64.55
2018-01-11T01:41:38.458Z,64.64
2018-01-11T01:41:39.058Z,64.64
2018-01-11T01:41:39.657Z,64.55
2018-01-11T01:41:40.259Z,64.55
2018-01-11T01:41:40.857Z,64.64
2018-01-11T01:41:41.456Z,64.64
2018-01-11T01:42:34.914Z,64.26
2018-01-11T01:42:35.510Z,64.74
2018-01-11T01:42:36.110Z,64.55
2018-01-11T01:42:36.716Z,64.55
2018-01-11T01:42:37.309Z,64.83
2018-01-11T01:42:37.909Z,64.83
2018-01-11T01:42:38.509Z,65.02
2018-01-11T01:42:39.109Z,64.93
2018-01-11T01:43:32.565Z,64.80
2018-01-11T01:43:33.164Z,64.93
2018-01-11T01:43:33.768Z,64.83
2018-01-11T01:43:34.362Z,64.83
2018-01-11T01:43:34.962Z,64.93
2018-01-11T01:43:35.562Z,64.83
2018-01-11T01:43:36.162Z,64.55
2018-01-11T01:43:36.762Z,64.26
2018-01-11T01:44:31.274Z,64.42
2018-01-11T01:44:31.838Z,64.83
2018-01-11T01:44:32.437Z,64.42
2018-01-11T01:44:33.040Z,64.93
2018-01-11T01:44:33.636Z,64.55
2018-01-11T01:44:34.236Z,64.83
2018-01-11T01:44:34.834Z,64.64
2018-01-11T01:44:35.435Z,64.83
2018-01-11T01:45:28.979Z,64.55
2018-01-11T01:45:29.491Z,64.83
2018-01-11T01:45:30.090Z,64.55
2018-01-11T01:45:30.688Z,64.55
2018-01-11T01:45:31.289Z,64.52
2018-01-11T01:45:31.889Z,64.61
2018-01-11T01:45:32.487Z,64.52
2018-01-11T01:45:33.091Z,64.55
2018-01-11T01:46:26.546Z,64.42
2018-01-11T01:46:27.143Z,64.45
2018-01-11T01:46:27.739Z,64.45
2018-01-11T01:46:28.342Z,64.52
2018-01-11T01:46:28.940Z,64.45
2018-01-11T01:46:29.542Z,64.90
2018-01-11T01:46:30.142Z,64.83
2018-01-11T01:46:30.740Z,64.23
2018-01-11T01:47:24.211Z,64.83
2018-01-11T01:47:24.801Z,64.83
2018-01-11T01:47:25.395Z,64.83
2018-01-11T01:47:26.010Z,64.93
2018-01-11T01:47:26.592Z,65.12
2018-01-11T01:47:27.194Z,64.90
2018-01-11T01:47:27.793Z,64.80
2018-01-11T01:47:28.392Z,64.80
2018-01-11T01:48:21.851Z,64.61
2018-01-11T01:48:22.445Z,64.52
2018-01-11T01:48:23.045Z,64.52
2018-01-11T01:48:23.645Z,64.42
2018-01-11T01:48:24.245Z,64.36
2018-01-11T01:48:24.846Z,64.55
2018-01-11T01:48:25.444Z,64.45
2018-01-11T01:48:26.047Z,64.42
2018-01-11T01:49:19.502Z,64.33
2018-01-11T01:49:20.097Z,64.33
2018-01-11T01:49:20.707Z,64.42
2018-01-11T01:49:21.297Z,64.42
2018-01-11T01:49:21.898Z,64.45
2018-01-11T01:49:22.497Z,64.36
2018-01-11T01:49:23.096Z,64.36
2018-01-11T01:49:23.699Z,64.36
2018-01-11T01:50:18.211Z,64.42
2018-01-11T01:50:18.775Z,64.36
2018-01-11T01:50:19.373Z,64.36
2018-01-11T01:50:19.973Z,64.33
2018-01-11T01:50:20.572Z,64.33
2018-01-11T01:50:21.173Z,64.33
2018-01-11T01:50:21.773Z,64.61
2018-01-11T01:50:22.371Z,64.42
2018-01-11T01:51:15.828Z,64.42
2018-01-11T01:51:16.426Z,64.45
2018-01-11T01:51:17.032Z,64.23
2018-01-11T01:51:17.625Z,64.42
2018-01-11T01:51:18.223Z,64.55
2018-01-11T01:51:18.825Z,64.33
2018-01-11T01:51:19.423Z,64.36
2018-01-11T01:51:20.024Z,64.33
2018-01-11T01:52:14.508Z,64.33
2018-01-11T01:52:15.099Z,64.45
2018-01-11T01:52:15.699Z,64.52
2018-01-11T01:52:16.300Z,64.33
2018-01-11T01:52:16.902Z,64.36
2018-01-11T01:52:17.500Z,64.26
2018-01-11T01:52:18.099Z,64.36
2018-01-11T01:52:18.711Z,64.45
2018-01-11T01:53:12.156Z,64.52
2018-01-11T01:53:12.753Z,64.42
2018-01-11T01:53:13.354Z,64.45
2018-01-11T01:53:13.964Z,64.42
2018-01-11T01:53:14.551Z,64.36
2018-01-11T01:53:15.152Z,64.33
2018-01-11T01:53:15.752Z,64.42
2018-01-11T01:53:16.350Z,64.36
2018-01-11T01:54:09.808Z,64.07
2018-01-11T01:54:10.405Z,64.07
2018-01-11T01:54:11.004Z,63.98
2018-01-11T01:54:11.603Z,64.17
2018-01-11T01:54:12.205Z,63.98
2018-01-11T01:54:12.804Z,64.07
2018-01-11T01:54:13.409Z,64.17
2018-01-11T01:54:14.003Z,64.07
2018-01-11T01:55:07.547Z,64.07
2018-01-11T01:55:08.057Z,64.17
2018-01-11T01:55:08.656Z,63.89
2018-01-11T01:55:09.258Z,64.17
2018-01-11T01:55:09.856Z,63.98
2018-01-11T01:55:10.455Z,63.89
2018-01-11T01:55:11.054Z,63.98
2018-01-11T01:55:11.655Z,64.26
2018-01-11T01:56:05.144Z,64.26
2018-01-11T01:56:05.712Z,64.45
2018-01-11T01:56:06.309Z,64.26
2018-01-11T01:56:06.909Z,64.07
2018-01-11T01:56:07.505Z,64.07
2018-01-11T01:56:08.110Z,64.26
2018-01-11T01:56:08.707Z,64.17
2018-01-11T01:56:09.306Z,64.36
2018-01-11T01:57:02.849Z,64.36
2018-01-11T01:57:03.400Z,64.36
2018-01-11T01:57:03.975Z,64.26
2018-01-11T01:57:04.581Z,64.26
2018-01-11T01:57:05.176Z,64.26
2018-01-11T01:57:05.760Z,64.45
2018-01-11T01:57:06.379Z,64.36
2018-01-11T01:57:06.960Z,64.26
2018-01-11T01:58:00.416Z,63.98
2018-01-11T01:58:01.012Z,64.26
2018-01-11T01:58:01.611Z,63.98
2018-01-11T01:58:02.211Z,63.98
2018-01-11T01:58:02.810Z,64.07
2018-01-11T01:58:03.410Z,63.98
2018-01-11T01:58:04.011Z,64.07
2018-01-11T01:58:04.610Z,63.98
2018-01-11T01:58:58.067Z,64.07
2018-01-11T01:58:58.662Z,64.07
2018-01-11T01:58:59.262Z,64.07
2018-01-11T01:58:59.865Z,63.89
2018-01-11T01:59:00.463Z,64.26
2018-01-11T01:59:01.061Z,64.36
2018-01-11T01:59:01.662Z,64.07
2018-01-11T01:59:02.267Z,63.89
2018-01-11T01:59:55.717Z,64.55
2018-01-11T01:59:56.314Z,64.45
2018-01-11T01:59:56.914Z,64.45
2018-01-11T01:59:57.515Z,64.36
2018-01-11T01:59:58.113Z,64.36
2018-01-11T01:59:58.714Z,64.45
2018-01-11T01:59:59.314Z,64.45
2018-01-11T01:59:59.914Z,64.55
2018-01-11T02:00:53.369Z,64.45
2018-01-11T02:00:53.965Z,64.45
2018-01-11T02:00:54.567Z,64.45
2018-01-11T02:00:55.166Z,64.36
2018-01-11T02:00:55.765Z,64.36
2018-01-11T02:00:56.366Z,64.36
2018-01-11T02:00:56.965Z,64.45
2018-01-11T02:00:57.565Z,64.36
2018-01-11T02:01:51.053Z,64.36
2018-01-11T02:01:51.622Z,64.36
2018-01-11T02:01:52.216Z,64.45
2018-01-11T02:01:52.817Z,64.55
2018-01-11T02:01:53.422Z,64.55
2018-01-11T02:01:54.034Z,64.45
2018-01-11T02:01:54.616Z,64.36
2018-01-11T02:01:55.216Z,64.36
2018-01-11T02:02:48.699Z,64.45
2018-01-11T02:02:49.269Z,64.45
2018-01-11T02:02:49.868Z,64.45
2018-01-11T02:02:50.469Z,64.36
2018-01-11T02:02:51.070Z,64.45
2018-01-11T02:02:51.672Z,64.36
2018-01-11T02:02:52.267Z,64.36
2018-01-11T02:02:52.870Z,64.55
2018-01-11T02:03:46.323Z,64.07
2018-01-11T02:03:46.922Z,64.07
2018-01-11T02:03:47.520Z,64.36
2018-01-11T02:03:48.121Z,64.36
2018-01-11T02:03:48.721Z,64.26
2018-01-11T02:03:49.320Z,64.26
2018-01-11T02:03:49.921Z,64.36
2018-01-11T02:03:50.520Z,64.36
2018-01-11T02:04:43.976Z,64.45
2018-01-11T02:04:44.574Z,64.36
2018-01-11T02:04:45.209Z,64.26
2018-01-11T02:04:45.773Z,64.45
2018-01-11T02:04:46.376Z,64.36
2018-01-11T02:04:46.986Z,64.74
2018-01-11T02:04:47.572Z,64.55
2018-01-11T02:04:48.171Z,64.45
2018-01-11T02:05:42.651Z,64.36
2018-01-11T02:05:43.248Z,64.45
2018-01-11T02:05:43.846Z,64.36
2018-01-11T02:05:44.447Z,64.45
2018-01-11T02:05:45.046Z,64.45
2018-01-11T02:05:45.647Z,64.36
2018-01-11T02:05:46.246Z,64.45
2018-01-11T02:05:46.846Z,64.45
2018-01-11T02:06:40.336Z,64.45
2018-01-11T02:06:40.900Z,64.26
2018-01-11T02:06:41.499Z,64.36
2018-01-11T02:06:42.099Z,64.45
2018-01-11T02:06:42.701Z,64.64
2018-01-11T02:06:43.299Z,64.26
2018-01-11T02:06:43.899Z,64.36
2018-01-11T02:06:44.498Z,64.45
2018-01-11T02:07:39.491Z,64.45
2018-01-11T02:07:40.093Z,64.55
2018-01-11T02:07:40.686Z,64.55
2018-01-11T02:07:41.285Z,64.45
2018-01-11T02:07:41.887Z,64.64
2018-01-11T02:07:42.492Z,64.45
2018-01-11T02:07:43.087Z,64.45
2018-01-11T02:08:36.528Z,64.83
2018-01-11T02:08:37.124Z,64.55
2018-01-11T02:08:37.724Z,64.26
2018-01-11T02:08:38.325Z,64.83
2018-01-11T02:08:38.924Z,64.45
2018-01-11T02:08:39.526Z,64.45
2018-01-11T02:08:40.123Z,64.74
2018-01-11T02:08:40.725Z,64.64
2018-01-11T02:09:35.203Z,64.64
2018-01-11T02:09:35.799Z,64.45
2018-01-11T02:09:36.400Z,64.45
2018-01-11T02:09:36.999Z,64.45
2018-01-11T02:09:37.600Z,64.45
2018-01-11T02:09:38.204Z,64.45
2018-01-11T02:09:38.800Z,64.45
2018-01-11T02:09:39.403Z,64.55
2018-01-11T02:10:33.879Z,65.12
2018-01-11T02:10:34.475Z,65.21
2018-01-11T02:10:35.075Z,65.12
2018-01-11T02:10:35.675Z,64.83
2018-01-11T02:10:36.275Z,65.21
2018-01-11T02:10:36.879Z,65.02
2018-01-11T02:10:37.475Z,64.83
2018-01-11T02:10:38.075Z,65.02
2018-01-11T02:11:31.531Z,65.21
2018-01-11T02:11:32.128Z,65.12
2018-01-11T02:11:32.729Z,65.02
2018-01-11T02:11:33.328Z,65.02
2018-01-11T02:11:33.931Z,65.12
2018-01-11T02:11:34.530Z,65.02
2018-01-11T02:11:35.128Z,64.93
2018-01-11T02:11:35.728Z,65.02
2018-01-11T02:12:30.241Z,64.83
2018-01-11T02:12:30.803Z,64.83
2018-01-11T02:12:31.407Z,64.83
2018-01-11T02:12:32.003Z,64.93
2018-01-11T02:12:32.602Z,64.83
2018-01-11T02:12:33.203Z,64.83
2018-01-11T02:12:33.801Z,64.93
2018-01-11T02:12:34.401Z,64.83
2018-01-11T02:13:28.912Z,65.21
2018-01-11T02:13:29.478Z,65.12
2018-01-11T02:13:30.081Z,65.21
2018-01-11T02:13:30.678Z,65.12
2018-01-11T02:13:31.281Z,65.12
2018-01-11T02:13:31.881Z,65.40
2018-01-11T02:13:32.475Z,65.21
2018-01-11T02:13:33.076Z,65.12
2018-01-11T02:14:26.561Z,65.02
2018-01-11T02:14:27.131Z,65.12
2018-01-11T02:14:27.733Z,65.02
2018-01-11T02:14:28.330Z,64.93
2018-01-11T02:14:28.931Z,64.93
2018-01-11T02:14:29.534Z,64.83
2018-01-11T02:14:30.130Z,65.02
2018-01-11T02:14:30.730Z,65.02
2018-01-11T02:15:25.252Z,65.50
2018-01-11T02:15:25.806Z,65.40
2018-01-11T02:15:26.405Z,65.40
2018-01-11T02:15:27.005Z,65.40
2018-01-11T02:15:27.605Z,65.50
2018-01-11T02:15:28.206Z,65.40
2018-01-11T02:15:28.804Z,65.02
2018-01-11T02:15:29.404Z,65.40
2018-01-11T02:16:22.861Z,66.06
2018-01-11T02:16:23.457Z,66.06
2018-01-11T02:16:24.058Z,66.06
2018-01-11T02:16:24.658Z,66.06
2018-01-11T02:16:25.258Z,66.06
2018-01-11T02:16:25.861Z,66.06
2018-01-11T02:16:26.457Z,65.97
2018-01-11T02:16:27.057Z,66.06
2018-01-11T02:17:21.537Z,65.21
2018-01-11T02:17:22.133Z,65.40
2018-01-11T02:17:22.733Z,65.31
2018-01-11T02:17:23.334Z,65.31
2018-01-11T02:17:23.939Z,65.31
2018-01-11T02:17:24.534Z,65.31
2018-01-11T02:17:25.133Z,65.21
2018-01-11T02:17:25.737Z,65.59
2018-01-11T02:18:20.246Z,66.44
2018-01-11T02:18:20.810Z,66.25
2018-01-11T02:18:21.409Z,66.25
2018-01-11T02:18:22.009Z,66.44
2018-01-11T02:18:22.608Z,66.25
2018-01-11T02:18:23.208Z,66.25
2018-01-11T02:18:23.808Z,66.25
2018-01-11T02:18:24.408Z,66.35
2018-01-11T02:19:17.894Z,66.35
2018-01-11T02:19:18.460Z,66.06
2018-01-11T02:19:19.063Z,66.25
2018-01-11T02:19:19.661Z,66.25
2018-01-11T02:19:20.261Z,66.35
2018-01-11T02:19:20.864Z,66.35
2018-01-11T02:19:21.463Z,66.25
2018-01-11T02:19:22.060Z,66.35
2018-01-11T02:20:16.566Z,66.92
2018-01-11T02:20:17.137Z,67.01
2018-01-11T02:20:17.735Z,66.92
2018-01-11T02:20:18.335Z,66.82
2018-01-11T02:20:18.936Z,66.53
2018-01-11T02:20:19.539Z,66.73
2018-01-11T02:20:20.136Z,66.73
2018-01-11T02:20:20.735Z,66.73
2018-01-11T02:21:15.242Z,67.01
2018-01-11T02:21:15.812Z,67.01
2018-01-11T02:21:16.412Z,67.11
2018-01-11T02:21:17.012Z,66.92
2018-01-11T02:21:17.612Z,66.92
2018-01-11T02:21:18.211Z,67.39
2018-01-11T02:21:18.811Z,67.11
2018-01-11T02:21:19.410Z,67.01
2018-01-11T02:22:13.920Z,67.58
2018-01-11T02:22:14.487Z,67.49
2018-01-11T02:22:15.086Z,67.49
2018-01-11T02:22:15.686Z,67.58
2018-01-11T02:22:16.286Z,67.58
2018-01-11T02:22:16.887Z,67.49
2018-01-11T02:22:17.485Z,67.58
2018-01-11T02:22:18.085Z,67.58
2018-01-11T02:23:11.574Z,67.39
2018-01-11T02:23:12.140Z,67.58
2018-01-11T02:23:12.740Z,67.58
2018-01-11T02:23:13.340Z,67.39
2018-01-11T02:23:13.940Z,67.30
2018-01-11T02:23:14.543Z,67.58
2018-01-11T02:23:15.138Z,67.58
2018-01-11T02:23:15.741Z,67.77
2018-01-11T02:24:09.227Z,67.77
2018-01-11T02:24:09.790Z,67.86
2018-01-11T02:24:10.393Z,67.86
2018-01-11T02:24:10.991Z,67.68
2018-01-11T02:24:11.591Z,67.68
2018-01-11T02:24:12.193Z,67.68
2018-01-11T02:24:12.792Z,67.86
2018-01-11T02:24:13.393Z,67.68
2018-01-11T02:25:06.875Z,68.05
2018-01-11T02:25:07.444Z,68.05
2018-01-11T02:25:08.043Z,68.05
2018-01-11T02:25:08.644Z,67.96
2018-01-11T02:25:09.243Z,68.05
2018-01-11T02:25:09.850Z,68.05
2018-01-11T02:25:10.446Z,67.96
2018-01-11T02:25:11.042Z,67.96
2018-01-11T02:26:04.498Z,68.52
2018-01-11T02:26:05.094Z,69.00
2018-01-11T02:26:05.694Z,68.71
2018-01-11T02:26:06.295Z,68.71
2018-01-11T02:26:06.895Z,68.81
2018-01-11T02:26:07.494Z,68.71
2018-01-11T02:26:08.093Z,68.71
2018-01-11T02:26:08.696Z,68.71
2018-01-11T02:27:02.150Z,69.47
2018-01-11T02:27:02.747Z,69.47
2018-01-11T02:27:03.346Z,69.47
2018-01-11T02:27:03.946Z,69.47
2018-01-11T02:27:04.547Z,69.47
2018-01-11T02:27:05.151Z,69.57
2018-01-11T02:27:05.747Z,69.47
2018-01-11T02:27:06.352Z,69.47
2018-01-11T02:28:04.818Z,69.66
2018-01-11T02:28:05.414Z,69.57
2018-01-11T02:28:06.015Z,69.66
2018-01-11T02:28:06.616Z,69.47
2018-01-11T02:28:07.214Z,69.38
2018-01-11T02:28:07.814Z,69.66
2018-01-11T02:28:08.413Z,69.76
2018-01-11T02:28:09.013Z,69.47
2018-01-11T02:28:09.613Z,69.85
2018-01-11T02:28:10.214Z,69.76
2018-01-11T02:28:10.812Z,69.95
2018-01-11T02:28:11.412Z,69.19
2018-01-11T02:28:12.012Z,69.19
2018-01-11T02:28:12.612Z,69.28
2018-01-11T02:28:13.211Z,69.76
2018-01-11T02:28:13.810Z,69.66
2018-01-11T02:28:14.413Z,69.19
2018-01-11T02:29:08.444Z,70.42
2018-01-11T02:29:09.007Z,70.23
2018-01-11T02:29:09.606Z,70.23
2018-01-11T02:29:10.207Z,70.14
2018-01-11T02:29:10.806Z,70.04
2018-01-11T02:29:11.412Z,70.42
2018-01-11T02:29:12.006Z,70.14
2018-01-11T02:29:12.607Z,70.23
2018-01-11T02:30:06.094Z,71.36
2018-01-11T02:30:06.659Z,71.08
2018-01-11T02:30:07.259Z,71.74
2018-01-11T02:30:07.864Z,71.93
2018-01-11T02:30:08.459Z,71.65
2018-01-11T02:30:09.058Z,71.65
2018-01-11T02:30:09.659Z,71.55
2018-01-11T02:30:10.258Z,71.55
2018-01-11T02:31:04.738Z,71.65
2018-01-11T02:31:05.333Z,71.74
2018-01-11T02:31:05.933Z,71.74
2018-01-11T02:31:06.534Z,71.93
2018-01-11T02:31:07.133Z,71.84
2018-01-11T02:31:07.732Z,72.03
2018-01-11T02:31:08.332Z,71.84
2018-01-11T02:31:08.932Z,71.84
2018-01-11T02:32:02.390Z,72.12
2018-01-11T02:32:02.987Z,72.22
2018-01-11T02:32:03.586Z,72.22
2018-01-11T02:32:04.190Z,72.31
2018-01-11T02:32:04.785Z,72.50
2018-01-11T02:32:05.386Z,72.31
2018-01-11T02:32:05.985Z,72.22
2018-01-11T02:32:06.588Z,72.31
2018-01-11T02:33:00.045Z,72.88
2018-01-11T02:33:00.636Z,72.69
2018-01-11T02:33:01.236Z,72.88
2018-01-11T02:33:01.837Z,72.78
2018-01-11T02:33:02.436Z,72.88
2018-01-11T02:33:03.036Z,73.16
2018-01-11T02:33:03.636Z,72.88
2018-01-11T02:33:04.235Z,72.88
2018-01-11T02:33:57.695Z,73.73
2018-01-11T02:33:58.288Z,73.73
2018-01-11T02:33:58.889Z,73.54
2018-01-11T02:33:59.489Z,73.73
2018-01-11T02:34:00.090Z,73.64
2018-01-11T02:34:00.694Z,73.73
2018-01-11T02:34:01.288Z,73.64
2018-01-11T02:34:01.885Z,73.54
2018-01-11T02:51:38.392Z,75.49
2018-01-11T02:51:38.952Z,75.78
2018-01-11T02:51:39.553Z,75.59
2018-01-11T02:51:40.154Z,75.68
2018-01-11T02:51:40.752Z,75.59
2018-01-11T02:51:41.350Z,75.68
2018-01-11T02:51:41.951Z,75.68
2018-01-11T02:51:42.551Z,75.68
2018-01-11T02:52:37.057Z,74.64
2018-01-11T02:52:37.631Z,75.12
2018-01-11T02:52:38.227Z,74.64
2018-01-11T02:52:38.829Z,75.02
2018-01-11T02:52:39.435Z,74.93
2018-01-11T02:52:40.028Z,75.02
2018-01-11T02:52:40.627Z,75.02
2018-01-11T02:52:41.227Z,75.21
2018-01-11T02:53:34.710Z,74.17
2018-01-11T02:53:35.282Z,74.26
2018-01-11T02:53:35.880Z,73.79
2018-01-11T02:53:36.483Z,73.50
2018-01-11T02:53:37.080Z,73.60
2018-01-11T02:53:37.679Z,73.79
2018-01-11T02:53:38.280Z,73.79
2018-01-11T02:53:38.881Z,73.60
2018-01-11T02:54:32.335Z,73.22
2018-01-11T02:54:32.932Z,73.22
2018-01-11T02:54:33.531Z,73.13
2018-01-11T02:54:34.133Z,72.85
2018-01-11T02:54:34.732Z,72.85
2018-01-11T02:54:35.331Z,73.03
2018-01-11T02:54:35.931Z,72.85
2018-01-11T02:54:36.532Z,72.85
2018-01-11T02:55:31.012Z,73.22
2018-01-11T02:55:31.607Z,73.32
2018-01-11T02:55:32.208Z,73.13
2018-01-11T02:55:32.813Z,73.32
2018-01-11T02:55:33.406Z,73.41
2018-01-11T02:55:34.016Z,73.22
2018-01-11T02:55:34.608Z,73.41
2018-01-11T02:55:35.205Z,73.32
2018-01-11T02:56:29.686Z,72.47
2018-01-11T02:56:30.283Z,72.47
2018-01-11T02:56:30.892Z,72.66
2018-01-11T02:56:31.482Z,72.47
2018-01-11T02:56:32.093Z,72.94
2018-01-11T02:56:32.680Z,73.03
2018-01-11T02:56:33.280Z,72.66
2018-01-11T02:56:33.881Z,72.47
2018-01-11T02:57:27.372Z,72.37
2018-01-11T02:57:27.934Z,72.28
2018-01-11T02:57:28.537Z,72.28
2018-01-11T02:57:29.136Z,72.28
2018-01-11T02:57:29.735Z,72.37
2018-01-11T02:57:30.335Z,72.85
2018-01-11T02:57:30.935Z,72.28
2018-01-11T02:57:31.534Z,72.28
2018-01-11T02:58:25.529Z,72.47
2018-01-11T02:58:26.107Z,72.47
2018-01-11T02:58:26.705Z,72.47
2018-01-11T02:58:27.299Z,72.47
2018-01-11T02:58:27.900Z,72.37
2018-01-11T02:58:28.504Z,72.37
2018-01-11T02:58:29.118Z,72.37
2018-01-11T02:59:22.542Z,72.47
2018-01-11T02:59:23.144Z,72.47
2018-01-11T02:59:23.744Z,72.47
2018-01-11T02:59:24.336Z,72.56
2018-01-11T02:59:24.944Z,72.47
2018-01-11T02:59:25.536Z,72.47
2018-01-11T02:59:26.139Z,72.47
2018-01-11T02:59:26.736Z,72.47
2018-01-11T03:00:21.216Z,72.18
2018-01-11T03:00:21.857Z,72.18
2018-01-11T03:00:23.188Z,71.99
2018-01-11T03:00:23.256Z,72.28
2018-01-11T03:00:23.735Z,72.09
2018-01-11T03:00:24.306Z,71.99
2018-01-11T03:00:24.901Z,72.18
2018-01-11T03:00:25.500Z,71.99
2018-01-11T03:01:18.972Z,72.18
2018-01-11T03:01:19.570Z,72.09
2018-01-11T03:01:20.168Z,71.80
2018-01-11T03:01:20.767Z,71.99
2018-01-11T03:01:21.367Z,72.09
2018-01-11T03:01:21.969Z,72.09
2018-01-11T03:01:22.566Z,71.99
2018-01-11T03:01:23.166Z,72.09
2018-01-11T03:02:16.623Z,71.71
2018-01-11T03:02:17.220Z,71.90
2018-01-11T03:02:17.819Z,71.61
2018-01-11T03:02:18.421Z,71.71
2018-01-11T03:02:19.021Z,71.42
2018-01-11T03:02:19.621Z,71.71
2018-01-11T03:02:20.218Z,71.80
2018-01-11T03:02:20.818Z,71.71
2018-01-11T03:03:14.308Z,71.90
2018-01-11T03:03:14.871Z,71.61
2018-01-11T03:03:15.469Z,71.80
2018-01-11T03:03:16.071Z,71.90
2018-01-11T03:03:16.672Z,71.90
2018-01-11T03:03:17.275Z,71.61
2018-01-11T03:03:17.871Z,71.80
2018-01-11T03:03:18.470Z,71.71
2018-01-11T03:04:12.952Z,71.71
2018-01-11T03:04:13.552Z,71.71
2018-01-11T03:04:14.145Z,71.71
2018-01-11T03:04:14.745Z,71.71
2018-01-11T03:04:15.345Z,71.71
2018-01-11T03:04:15.949Z,71.71
2018-01-11T03:04:16.545Z,71.33
2018-01-11T03:04:17.144Z,71.99
2018-01-11T03:05:11.625Z,71.71
2018-01-11T03:05:12.222Z,71.71
2018-01-11T03:05:12.821Z,71.90
2018-01-11T03:05:13.425Z,71.71
2018-01-11T03:05:14.021Z,71.99
2018-01-11T03:05:14.624Z,71.61
2018-01-11T03:05:15.220Z,71.90
2018-01-11T03:05:15.821Z,71.71
2018-01-11T03:06:10.299Z,71.71
2018-01-11T03:06:10.898Z,71.71
2018-01-11T03:06:11.499Z,71.90
2018-01-11T03:06:12.096Z,71.71
2018-01-11T03:06:12.696Z,71.71
2018-01-11T03:06:13.299Z,71.90
2018-01-11T03:06:13.897Z,71.61
2018-01-11T03:06:14.497Z,71.71
2018-01-11T03:07:08.976Z,72.09
2018-01-11T03:07:09.573Z,71.99
2018-01-11T03:07:10.177Z,71.71
2018-01-11T03:07:10.773Z,71.90
2018-01-11T03:07:11.372Z,71.90
2018-01-11T03:07:11.976Z,71.71
2018-01-11T03:07:12.573Z,71.90
2018-01-11T03:07:13.173Z,71.71
2018-01-11T03:08:06.628Z,71.99
2018-01-11T03:08:07.225Z,71.80
2018-01-11T03:08:07.826Z,71.99
2018-01-11T03:08:08.425Z,71.90
2018-01-11T03:08:09.027Z,71.90
2018-01-11T03:08:09.625Z,71.80
2018-01-11T03:08:10.226Z,71.80
2018-01-11T03:08:10.824Z,71.80
2018-01-11T03:09:05.338Z,71.99
2018-01-11T03:09:05.900Z,71.99
2018-01-11T03:09:06.498Z,71.71
2018-01-11T03:09:07.100Z,71.80
2018-01-11T03:09:07.699Z,71.99
2018-01-11T03:09:08.300Z,71.99
2018-01-11T03:09:08.904Z,71.71
2018-01-11T03:09:09.498Z,71.90
2018-01-11T03:10:02.956Z,71.99
2018-01-11T03:10:03.554Z,71.61
2018-01-11T03:10:04.153Z,71.99
2018-01-11T03:10:04.754Z,71.61
2018-01-11T03:10:05.353Z,71.80
2018-01-11T03:10:05.954Z,71.99
2018-01-11T03:10:06.553Z,71.80
2018-01-11T03:10:07.153Z,72.09
2018-01-11T03:11:01.634Z,72.37
2018-01-11T03:11:02.234Z,71.90
2018-01-11T03:11:02.828Z,72.47
2018-01-11T03:11:03.427Z,71.90
2018-01-11T03:11:04.027Z,72.37
2018-01-11T03:11:04.633Z,72.37
2018-01-11T03:11:05.226Z,72.18
2018-01-11T03:11:05.826Z,72.47
2018-01-11T03:11:59.285Z,72.18
2018-01-11T03:11:59.882Z,72.18
2018-01-11T03:12:00.478Z,72.18
2018-01-11T03:12:01.078Z,72.37
2018-01-11T03:12:01.679Z,71.99
2018-01-11T03:12:02.279Z,72.18
2018-01-11T03:12:02.878Z,72.18
2018-01-11T03:12:03.479Z,71.99
2018-01-11T03:12:57.958Z,72.37
2018-01-11T03:12:58.554Z,72.28
2018-01-11T03:12:59.159Z,72.56
2018-01-11T03:12:59.758Z,72.18
2018-01-11T03:13:00.354Z,72.28
2018-01-11T03:13:00.964Z,72.09
2018-01-11T03:13:01.554Z,72.18
2018-01-11T03:13:02.154Z,72.28
2018-01-11T03:13:55.611Z,72.18
2018-01-11T03:13:56.208Z,72.18
2018-01-11T03:13:56.807Z,72.18
2018-01-11T03:13:57.409Z,71.99
2018-01-11T03:13:58.006Z,72.18
2018-01-11T03:13:58.610Z,72.56
2018-01-11T03:13:59.207Z,72.18
2018-01-11T03:13:59.806Z,72.18
2018-01-11T03:14:53.297Z,72.09
2018-01-11T03:14:53.862Z,72.18
2018-01-11T03:14:54.459Z,72.28
2018-01-11T03:14:55.059Z,72.28
2018-01-11T03:14:55.662Z,72.18
2018-01-11T03:14:56.259Z,72.28
2018-01-11T03:14:56.858Z,72.28
2018-01-11T03:14:57.460Z,72.37
2018-01-11T03:15:51.938Z,72.37
2018-01-11T03:15:52.533Z,72.28
2018-01-11T03:15:53.134Z,72.47
2018-01-11T03:15:53.734Z,72.37
2018-01-11T03:15:54.336Z,72.37
2018-01-11T03:15:54.937Z,72.37
2018-01-11T03:15:55.532Z,72.47
2018-01-11T03:15:56.132Z,72.66
2018-01-11T03:16:49.589Z,73.22
2018-01-11T03:16:50.187Z,73.32
2018-01-11T03:16:50.786Z,73.32
2018-01-11T03:16:51.386Z,73.32
2018-01-11T03:16:51.990Z,73.22
2018-01-11T03:16:52.589Z,73.13
2018-01-11T03:16:53.186Z,73.13
2018-01-11T03:16:53.788Z,73.22
2018-01-11T03:17:47.242Z,72.94
2018-01-11T03:17:47.843Z,72.75
2018-01-11T03:17:48.438Z,72.75
2018-01-11T03:17:49.037Z,73.03
2018-01-11T03:17:49.637Z,72.75
2018-01-11T03:17:50.239Z,72.75
2018-01-11T03:17:50.836Z,72.94
2018-01-11T03:17:51.438Z,72.75
2018-01-11T03:18:45.916Z,73.32
2018-01-11T03:18:46.514Z,73.32
2018-01-11T03:18:47.113Z,73.41
2018-01-11T03:18:47.713Z,73.50
2018-01-11T03:18:48.313Z,73.41
2018-01-11T03:18:48.921Z,73.22
2018-01-11T03:18:49.512Z,73.32
2018-01-11T03:18:50.112Z,73.41
2018-01-11T03:19:43.568Z,73.32
2018-01-11T03:19:44.172Z,73.50
2018-01-11T03:19:44.766Z,73.60
2018-01-11T03:19:45.364Z,73.41
2018-01-11T03:19:45.964Z,73.32
2018-01-11T03:19:46.565Z,73.60
2018-01-11T03:19:47.166Z,73.32
2018-01-11T03:19:47.765Z,73.41
2018-01-11T03:20:41.255Z,73.50
2018-01-11T03:20:41.818Z,73.41
2018-01-11T03:20:42.416Z,73.88
2018-01-11T03:20:43.017Z,73.41
2018-01-11T03:20:43.617Z,73.69
2018-01-11T03:20:44.218Z,73.69
2018-01-11T03:20:44.817Z,73.88
2018-01-11T03:20:45.416Z,73.98
2018-01-11T03:21:38.900Z,74.17
2018-01-11T03:21:39.473Z,74.17
2018-01-11T03:21:40.070Z,74.17
2018-01-11T03:21:40.669Z,74.26
2018-01-11T03:21:41.268Z,74.26
2018-01-11T03:21:41.869Z,74.07
2018-01-11T03:21:42.470Z,73.98
2018-01-11T03:21:43.069Z,74.17
2018-01-11T03:22:37.546Z,74.26
2018-01-11T03:22:38.144Z,74.17
2018-01-11T03:22:38.744Z,74.26
2018-01-11T03:22:39.370Z,74.17
2018-01-11T03:22:39.942Z,74.36
2018-01-11T03:22:40.546Z,74.17
2018-01-11T03:22:41.141Z,74.17
2018-01-11T03:22:41.744Z,74.45
2018-01-11T03:23:35.201Z,73.98
2018-01-11T03:23:35.796Z,73.98
2018-01-11T03:23:36.395Z,74.26
2018-01-11T03:23:36.995Z,74.07
2018-01-11T03:23:37.595Z,74.07
2018-01-11T03:23:38.197Z,74.17
2018-01-11T03:23:38.793Z,74.07
2018-01-11T03:23:39.393Z,74.17
2018-01-11T03:24:32.851Z,74.55
2018-01-11T03:24:33.449Z,74.55
2018-01-11T03:24:34.050Z,74.64
2018-01-11T03:24:34.648Z,74.64
2018-01-11T03:24:35.247Z,74.55
2018-01-11T03:24:35.854Z,74.45
2018-01-11T03:24:36.446Z,74.45
2018-01-11T03:24:37.048Z,74.55
2018-01-11T03:25:31.526Z,74.45
2018-01-11T03:25:32.122Z,74.74
2018-01-11T03:25:32.723Z,74.83
2018-01-11T03:25:33.321Z,74.83
2018-01-11T03:25:33.922Z,74.83
2018-01-11T03:25:34.528Z,74.74
2018-01-11T03:25:35.120Z,74.83
2018-01-11T03:25:35.721Z,74.83
2018-01-11T03:26:29.217Z,74.93
2018-01-11T03:26:29.776Z,74.45
2018-01-11T03:26:30.374Z,74.83
2018-01-11T03:26:30.979Z,74.74
2018-01-11T03:26:31.575Z,74.36
2018-01-11T03:26:32.175Z,75.02
2018-01-11T03:26:32.775Z,74.83
2018-01-11T03:26:33.375Z,74.74
2018-01-11T03:27:26.830Z,74.26
2018-01-11T03:27:27.426Z,74.45
2018-01-11T03:27:28.026Z,74.36
2018-01-11T03:27:28.627Z,74.83
2018-01-11T03:27:29.227Z,74.83
2018-01-11T03:27:29.827Z,74.64